createdAt,value
2018-05-24T00:00:30.362Z,52.46
2018-05-24T00:01:30.376Z,52.36
2018-05-24T00:02:30.435Z,52.46
2018-05-24T00:03:30.431Z,52.55
2018-05-24T00:04:30.403Z,52.17
2018-05-24T00:05:30.452Z,51.88
2018-05-24T00:06:30.450Z,51.98
2018-05-24T00:07:30.505Z,51.79
2018-05-24T00:08:30.454Z,51.69
2018-05-24T00:09:30.495Z,51.79
2018-05-24T00:10:30.531Z,51.69
2018-05-24T00:11:30.498Z,51.69
2018-05-24T00:12:30.502Z,51.88
2018-05-24T00:13:30.553Z,52.26
2018-05-24T00:14:30.527Z,52.17
2018-05-24T00:15:30.584Z,51.98
2018-05-24T00:16:30.587Z,51.59
2018-05-24T00:17:30.575Z,51.59
2018-05-24T00:18:30.591Z,51.79
2018-05-24T00:19:30.613Z,51.98
2018-05-24T00:20:30.681Z,52.65
2018-05-24T00:21:30.625Z,52.46
2018-05-24T00:22:30.626Z,52.46
2018-05-24T00:23:30.640Z,52.84
2018-05-24T00:24:30.648Z,52.55
2018-05-24T00:25:30.660Z,52.94
2018-05-24T00:26:30.706Z,52.46
2018-05-24T00:27:30.698Z,52.75
2018-05-24T00:28:30.707Z,52.75
2018-05-24T00:29:30.718Z,52.75
2018-05-24T00:30:30.726Z,52.65
2018-05-24T00:31:30.755Z,52.36
2018-05-24T00:32:30.783Z,53.03
2018-05-24T00:33:30.760Z,53.23
2018-05-24T00:34:30.759Z,53.03
2018-05-24T00:35:30.770Z,53.52
2018-05-24T00:36:30.811Z,53.20
2018-05-24T00:37:30.939Z,53.49
2018-05-24T00:38:30.824Z,53.30
2018-05-24T00:39:30.842Z,53.49
2018-05-24T00:40:30.839Z,53.11
2018-05-24T00:41:30.848Z,53.49
2018-05-24T00:42:30.877Z,53.01
2018-05-24T00:43:30.926Z,53.49
2018-05-24T00:44:30.887Z,53.30
2018-05-24T00:45:30.905Z,53.68
2018-05-24T00:46:30.921Z,53.68
2018-05-24T00:47:30.924Z,53.49
2018-05-24T00:48:30.957Z,53.49
2018-05-24T00:49:31.002Z,53.58
2018-05-24T00:50:30.962Z,54.06
2018-05-24T00:51:30.980Z,53.39
2018-05-24T00:52:30.983Z,53.68
2018-05-24T00:53:31.004Z,53.49
2018-05-24T00:54:31.051Z,53.49
2018-05-24T00:55:31.065Z,53.30
2018-05-24T00:56:31.028Z,53.20
2018-05-24T00:57:31.070Z,53.11
2018-05-24T00:58:31.086Z,53.20
2018-05-24T00:59:31.209Z,53.68
2018-05-24T01:00:31.569Z,53.58
2018-05-24T01:01:31.164Z,53.30
2018-05-24T01:02:31.105Z,53.68
2018-05-24T01:03:31.126Z,53.68
2018-05-24T01:04:31.153Z,53.39
2018-05-24T01:05:31.168Z,53.68
2018-05-24T01:06:31.192Z,53.78
2018-05-24T01:07:31.175Z,53.87
2018-05-24T01:08:31.196Z,53.30
2018-05-24T01:09:31.178Z,53.87
2018-05-24T01:10:31.207Z,53.78
2018-05-24T01:11:31.267Z,53.97
2018-05-24T01:12:31.220Z,53.94
2018-05-24T01:13:31.240Z,53.97
2018-05-24T01:14:31.251Z,54.52
2018-05-24T01:15:31.274Z,54.23
2018-05-24T01:16:31.304Z,53.78
2018-05-24T01:17:31.275Z,54.42
2018-05-24T01:18:31.316Z,54.13
2018-05-24T01:19:31.321Z,54.64
2018-05-24T01:20:31.333Z,53.58
2018-05-24T01:21:31.344Z,53.58
2018-05-24T01:22:31.358Z,53.97
2018-05-24T01:23:31.411Z,54.06
2018-05-24T01:24:31.421Z,54.55
2018-05-24T01:25:31.382Z,54.13
2018-05-24T01:26:31.382Z,54.04
2018-05-24T01:27:31.391Z,54.06
2018-05-24T01:28:31.405Z,54.06
2018-05-24T01:29:31.461Z,54.35
2018-05-24T01:30:31.453Z,54.45
2018-05-24T01:31:31.456Z,54.25
2018-05-24T01:32:31.473Z,54.35
2018-05-24T01:33:31.476Z,53.97
2018-05-24T01:34:31.553Z,54.35
2018-05-24T01:35:31.496Z,54.55
2018-05-24T01:36:31.569Z,54.16
2018-05-24T01:37:31.513Z,54.35
2018-05-24T01:38:31.535Z,54.06
2018-05-24T01:39:31.559Z,54.13
2018-05-24T01:40:31.586Z,53.87
2018-05-24T01:41:31.590Z,54.71
2018-05-24T01:42:31.569Z,54.71
2018-05-24T01:43:31.590Z,54.13
2018-05-24T01:44:31.604Z,54.23
2018-05-24T01:45:31.653Z,54.33
2018-05-24T01:46:31.637Z,54.42
2018-05-24T01:47:31.634Z,54.90
2018-05-24T01:48:31.648Z,54.80
2018-05-24T01:49:31.654Z,55.00
2018-05-24T01:50:31.695Z,54.71
2018-05-24T01:51:31.733Z,54.90
2018-05-24T01:52:31.707Z,55.10
2018-05-24T01:53:31.708Z,54.61
2018-05-24T01:54:31.721Z,54.90
2018-05-24T01:55:31.742Z,55.38
2018-05-24T01:56:31.767Z,55.00
2018-05-24T01:57:31.799Z,55.86
2018-05-24T01:58:31.772Z,55.38
2018-05-24T01:59:31.773Z,55.67
2018-05-24T02:00:31.778Z,55.57
2018-05-24T02:01:31.800Z,55.57
2018-05-24T02:02:31.850Z,56.15
2018-05-24T02:03:31.867Z,55.86
2018-05-24T02:04:31.836Z,55.93
2018-05-24T02:05:31.847Z,56.05
2018-05-24T02:06:31.866Z,56.05
2018-05-24T02:07:31.869Z,55.96
2018-05-24T02:08:31.929Z,56.15
2018-05-24T02:09:31.885Z,55.86
2018-05-24T02:10:31.943Z,55.57
2018-05-24T02:11:31.905Z,55.38
2018-05-24T02:12:31.927Z,56.24
2018-05-24T02:13:31.980Z,55.86
2018-05-24T02:14:31.958Z,56.05
2018-05-24T02:15:31.964Z,56.24
2018-05-24T02:16:31.966Z,56.12
2018-05-24T02:17:31.985Z,56.31
2018-05-24T02:18:32.098Z,56.22
2018-05-24T02:19:32.050Z,55.93
2018-05-24T02:20:32.041Z,56.22
2018-05-24T02:21:32.087Z,56.98
2018-05-24T02:22:32.046Z,56.31
2018-05-24T02:23:32.048Z,56.41
2018-05-24T02:24:32.109Z,55.83
2018-05-24T02:25:32.094Z,56.12
2018-05-24T02:26:32.100Z,56.41
2018-05-24T02:27:32.113Z,56.51
2018-05-24T02:28:32.119Z,56.51
2018-05-24T02:29:32.258Z,56.22
2018-05-24T02:30:32.206Z,56.79
2018-05-24T02:31:32.162Z,56.60
2018-05-24T02:32:32.149Z,56.51
2018-05-24T02:33:32.189Z,56.60
2018-05-24T02:34:32.196Z,56.41
2018-05-24T02:35:32.241Z,56.60
2018-05-24T02:36:32.208Z,56.89
2018-05-24T02:37:32.926Z,56.31
2018-05-24T02:38:32.239Z,56.41
2018-05-24T02:39:32.245Z,56.70
2018-05-24T02:40:32.262Z,56.98
2018-05-24T02:41:32.272Z,56.22
2018-05-24T02:42:32.321Z,56.22
2018-05-24T02:43:32.284Z,56.41
2018-05-24T02:44:32.292Z,56.98
2018-05-24T02:45:32.300Z,56.89
2018-05-24T02:46:32.311Z,56.41
2018-05-24T02:47:32.379Z,56.12
2018-05-24T02:48:32.340Z,56.60
2018-05-24T02:49:32.341Z,56.12
2018-05-24T02:50:32.376Z,56.70
2018-05-24T02:51:32.363Z,56.12
2018-05-24T02:52:32.423Z,56.70
2018-05-24T02:53:32.418Z,56.70
2018-05-24T02:54:32.408Z,56.79
2018-05-24T02:55:32.446Z,56.89
2018-05-24T02:56:32.437Z,56.79
2018-05-24T02:57:32.456Z,56.70
2018-05-24T02:58:32.547Z,56.89
2018-05-24T02:59:32.479Z,56.70
2018-05-24T03:00:32.464Z,56.51
2018-05-24T03:01:32.596Z,56.60
2018-05-24T03:02:32.526Z,56.60
2018-05-24T03:03:32.570Z,56.98
2018-05-24T03:04:32.561Z,56.79
2018-05-24T03:05:32.584Z,56.89
2018-05-24T03:06:32.569Z,56.70
2018-05-24T03:07:32.631Z,56.79
2018-05-24T03:08:32.580Z,56.98
2018-05-24T03:09:32.598Z,56.79
2018-05-24T03:10:32.705Z,57.08
2018-05-24T03:11:32.627Z,56.79
2018-05-24T03:12:32.754Z,56.70
2018-05-24T03:13:32.611Z,56.98
2018-05-24T03:14:32.655Z,56.70
2018-05-24T03:15:32.666Z,56.98
2018-05-24T03:16:32.659Z,56.60
2018-05-24T03:17:32.705Z,56.51
2018-05-24T03:18:32.728Z,56.60
2018-05-24T03:19:32.697Z,56.60
2018-05-24T03:20:32.728Z,56.89
2018-05-24T03:21:32.722Z,56.98
2018-05-24T03:22:32.720Z,57.08
2018-05-24T03:23:32.783Z,56.98
2018-05-24T03:24:32.745Z,57.08
2018-05-24T03:25:32.868Z,56.79
2018-05-24T03:26:32.783Z,56.41
2018-05-24T03:27:32.789Z,56.60
2018-05-24T03:28:32.785Z,56.51
2018-05-24T03:29:32.803Z,56.60
2018-05-24T03:30:32.840Z,56.51
2018-05-24T03:31:32.852Z,56.60
2018-05-24T03:32:32.841Z,56.60
2018-05-24T03:33:32.893Z,56.60
2018-05-24T03:34:32.922Z,57.08
2018-05-24T03:35:32.865Z,56.60
2018-05-24T03:36:32.886Z,56.98
2018-05-24T03:37:32.886Z,56.92
2018-05-24T03:38:33.123Z,56.44
2018-05-24T03:39:32.930Z,56.53
2018-05-24T03:40:32.930Z,56.34
2018-05-24T03:41:32.940Z,56.15
2018-05-24T03:42:33.015Z,56.82
2018-05-24T03:43:32.971Z,56.44
2018-05-24T03:44:32.979Z,56.05
2018-05-24T03:45:32.995Z,56.44
2018-05-24T03:46:33.081Z,56.44
2018-05-24T03:47:33.060Z,56.15
2018-05-24T03:48:33.026Z,56.34
2018-05-24T03:49:33.046Z,56.05
2018-05-24T03:50:33.069Z,55.67
2018-05-24T03:51:33.066Z,56.44
2018-05-24T03:52:33.087Z,55.60
2018-05-24T03:53:33.156Z,56.27
2018-05-24T03:54:33.150Z,56.08
2018-05-24T03:55:33.119Z,55.41
2018-05-24T03:56:33.120Z,56.15
2018-05-24T03:57:33.118Z,55.99
2018-05-24T03:58:33.138Z,56.08
2018-05-24T03:59:33.185Z,55.51
2018-05-24T04:00:33.176Z,55.69
2018-05-24T04:01:33.182Z,55.99
2018-05-24T04:02:33.205Z,55.69
2018-05-24T04:03:33.201Z,55.60
2018-05-24T04:04:33.286Z,55.02
2018-05-24T04:05:33.228Z,55.41
2018-05-24T04:06:33.233Z,55.60
2018-05-24T04:07:33.242Z,55.32
2018-05-24T04:08:33.254Z,54.93
2018-05-24T04:09:33.309Z,54.96
2018-05-24T04:10:33.310Z,54.83
2018-05-24T04:11:33.310Z,55.05
2018-05-24T04:12:33.319Z,54.19
2018-05-24T04:13:33.453Z,54.28
2018-05-24T04:14:33.334Z,54.28
2018-05-24T04:15:33.360Z,54.28
2018-05-24T04:16:33.393Z,54.12
2018-05-24T04:17:33.363Z,53.64
2018-05-24T04:18:33.368Z,53.16
2018-05-24T04:19:33.413Z,53.45
2018-05-24T04:20:33.418Z,53.16
2018-05-24T04:21:33.445Z,52.68
2018-05-24T04:22:33.480Z,53.64
2018-05-24T04:23:33.437Z,53.16
2018-05-24T04:24:33.464Z,53.06
2018-05-24T04:25:33.514Z,53.06
2018-05-24T04:26:33.540Z,53.16
2018-05-24T04:27:33.487Z,53.54
2018-05-24T04:28:33.500Z,53.06
2018-05-24T04:29:33.536Z,52.97
2018-05-24T04:30:33.549Z,52.61
2018-05-24T04:31:33.566Z,52.61
2018-05-24T04:32:33.603Z,52.61
2018-05-24T04:33:33.566Z,52.61
2018-05-24T04:34:33.578Z,52.22
2018-05-24T04:35:33.590Z,52.03
2018-05-24T04:36:33.631Z,51.74
2018-05-24T04:37:33.665Z,52.58
2018-05-24T04:38:33.648Z,52.58
2018-05-24T04:39:33.671Z,52.51
2018-05-24T04:40:33.647Z,52.99
2018-05-24T04:41:33.666Z,52.68
2018-05-24T04:42:33.720Z,52.48
2018-05-24T04:43:33.717Z,53.06
2018-05-24T04:44:33.733Z,53.54
2018-05-24T04:45:33.795Z,53.16
2018-05-24T04:46:33.722Z,53.16
2018-05-24T04:47:33.769Z,53.06
2018-05-24T04:48:33.807Z,53.09
2018-05-24T04:49:33.768Z,52.80
2018-05-24T04:50:33.789Z,52.51
2018-05-24T04:51:33.805Z,52.80
2018-05-24T04:52:33.833Z,51.93
2018-05-24T04:53:33.840Z,51.55
2018-05-24T04:54:33.828Z,51.67
2018-05-24T04:55:33.889Z,51.48
2018-05-24T04:56:33.853Z,50.99
2018-05-24T04:57:33.866Z,50.93
2018-05-24T04:58:33.889Z,50.45
2018-05-24T04:59:33.917Z,49.87
2018-05-24T05:00:33.934Z,49.79
2018-05-24T05:01:34.006Z,48.86
2018-05-24T05:02:33.972Z,48.76
2018-05-24T05:03:33.958Z,48.28
2018-05-24T05:04:33.961Z,47.53
2018-05-24T05:05:33.975Z,47.85
2018-05-24T05:06:33.979Z,46.20
2018-05-24T05:07:34.027Z,45.89
2018-05-24T05:08:34.007Z,46.11
2018-05-24T05:09:34.038Z,45.55
2018-05-24T05:10:34.075Z,45.26
2018-05-24T05:11:34.065Z,44.76
2018-05-24T05:12:34.098Z,44.95
2018-05-24T05:13:34.121Z,45.51
2018-05-24T05:14:34.194Z,45.82
2018-05-24T05:15:34.099Z,45.62
2018-05-24T05:16:34.136Z,44.87
2018-05-24T05:17:34.135Z,44.03
2018-05-24T05:18:34.166Z,43.64
2018-05-24T05:19:34.244Z,43.37
2018-05-24T05:20:34.217Z,42.79
2018-05-24T05:21:34.186Z,42.50
2018-05-24T05:22:34.196Z,42.24
2018-05-24T05:23:34.227Z,42.41
2018-05-24T05:24:34.280Z,42.31
2018-05-24T05:25:34.311Z,42.31
2018-05-24T05:26:34.264Z,42.60
2018-05-24T05:27:34.285Z,42.29
2018-05-24T05:28:34.281Z,42.87
2018-05-24T05:29:34.325Z,42.70
2018-05-24T05:30:34.363Z,42.10
2018-05-24T05:31:34.369Z,42.21
2018-05-24T05:32:34.359Z,42.12
2018-05-24T05:33:34.363Z,42.21
2018-05-24T05:34:34.376Z,41.94
2018-05-24T05:35:34.378Z,42.14
2018-05-24T05:36:34.426Z,41.58
2018-05-24T05:37:34.476Z,41.27
2018-05-24T05:38:34.434Z,41.58
2018-05-24T05:39:34.442Z,40.98
2018-05-24T05:40:34.478Z,41.83
2018-05-24T05:41:34.522Z,42.31
2018-05-24T05:42:34.483Z,41.93
2018-05-24T05:43:34.503Z,41.91
2018-05-24T05:44:34.528Z,42.75
2018-05-24T05:45:34.572Z,43.72
2018-05-24T05:46:34.589Z,43.81
2018-05-24T05:47:34.573Z,45.04
2018-05-24T05:48:34.630Z,44.78
2018-05-24T05:49:34.596Z,44.39
2018-05-24T05:50:34.607Z,44.85
2018-05-24T05:51:34.656Z,45.04
2018-05-24T05:52:34.650Z,45.53
2018-05-24T05:53:34.653Z,45.99
2018-05-24T05:54:34.672Z,46.47
2018-05-24T05:55:34.690Z,46.28
2018-05-24T05:56:34.713Z,46.35
2018-05-24T05:57:34.730Z,46.64
2018-05-24T05:58:34.707Z,47.41
2018-05-24T05:59:34.717Z,47.12
2018-05-24T06:00:34.800Z,47.41
2018-05-24T06:01:34.864Z,47.51
2018-05-24T06:02:34.795Z,48.74
2018-05-24T06:03:34.799Z,48.74
2018-05-24T06:04:34.795Z,48.83
2018-05-24T06:05:34.829Z,49.48
2018-05-24T06:06:34.883Z,49.77
2018-05-24T06:07:34.843Z,50.06
2018-05-24T06:08:34.857Z,50.42
2018-05-24T06:09:34.906Z,51.38
2018-05-24T06:10:34.880Z,51.55
2018-05-24T06:11:34.941Z,51.93
2018-05-24T06:12:34.927Z,51.84
2018-05-24T06:13:34.905Z,51.93
2018-05-24T06:14:34.958Z,52.22
2018-05-24T06:15:34.969Z,52.61
2018-05-24T06:16:34.972Z,52.70
2018-05-24T06:17:35.047Z,52.22
2018-05-24T06:18:34.987Z,51.74
2018-05-24T06:19:34.990Z,52.42
2018-05-24T06:20:35.008Z,52.51
2018-05-24T06:21:35.036Z,52.89
2018-05-24T06:22:35.025Z,52.89
2018-05-24T06:23:35.082Z,52.80
2018-05-24T06:24:35.085Z,52.61
2018-05-24T06:25:35.072Z,52.99
2018-05-24T06:26:35.112Z,53.09
2018-05-24T06:27:35.100Z,53.47
2018-05-24T06:28:35.225Z,53.19
2018-05-24T06:29:35.112Z,53.11
2018-05-24T06:30:35.131Z,52.80
2018-05-24T06:31:35.144Z,53.19
2018-05-24T06:32:35.157Z,53.66
2018-05-24T06:33:35.218Z,53.54
2018-05-24T06:34:35.213Z,54.43
2018-05-24T06:35:35.222Z,54.02
2018-05-24T06:36:35.223Z,54.02
2018-05-24T06:37:35.234Z,54.53
2018-05-24T06:38:35.239Z,54.53
2018-05-24T06:39:35.285Z,54.43
2018-05-24T06:40:35.308Z,54.05
2018-05-24T06:41:35.297Z,54.22
2018-05-24T06:42:35.271Z,54.69
2018-05-24T06:43:35.376Z,54.53
2018-05-24T06:44:35.329Z,54.05
2018-05-24T06:45:35.383Z,54.24
2018-05-24T06:46:35.360Z,54.05
2018-05-24T06:47:35.338Z,54.34
2018-05-24T06:48:35.361Z,54.60
2018-05-24T06:49:35.360Z,55.08
2018-05-24T06:50:35.436Z,54.89
2018-05-24T06:51:35.415Z,55.18
2018-05-24T06:52:35.401Z,55.37
2018-05-24T06:53:35.431Z,55.56
2018-05-24T06:54:35.468Z,55.27
2018-05-24T06:55:35.490Z,54.50
2018-05-24T06:56:35.457Z,55.18
2018-05-24T06:57:35.477Z,55.56
2018-05-24T06:58:35.519Z,55.37
2018-05-24T06:59:35.494Z,55.94
2018-05-24T07:00:35.505Z,56.04
2018-05-24T07:01:35.560Z,55.76
2018-05-24T07:02:35.537Z,55.20
2018-05-24T07:03:35.562Z,54.72
2018-05-24T07:04:35.851Z,54.91
2018-05-24T07:05:35.599Z,55.40
2018-05-24T07:06:35.592Z,55.68
2018-05-24T07:07:35.601Z,55.88
2018-05-24T07:08:35.596Z,55.20
2018-05-24T07:09:35.697Z,55.11
2018-05-24T07:10:35.652Z,55.01
2018-05-24T07:11:35.653Z,55.11
2018-05-24T07:12:35.674Z,55.04
2018-05-24T07:13:35.669Z,54.43
2018-05-24T07:14:35.736Z,54.65
2018-05-24T07:15:35.696Z,54.27
2018-05-24T07:16:35.714Z,53.98
2018-05-24T07:17:35.762Z,54.36
2018-05-24T07:18:35.834Z,54.75
2018-05-24T07:19:35.742Z,53.69
2018-05-24T07:20:35.761Z,54.17
2018-05-24T07:21:35.789Z,54.27
2018-05-24T07:22:35.834Z,54.27
2018-05-24T07:23:35.815Z,54.27
2018-05-24T07:24:35.834Z,54.65
2018-05-24T07:25:35.817Z,54.17
2018-05-24T07:26:35.830Z,54.65
2018-05-24T07:27:35.889Z,54.36
2018-05-24T07:28:35.887Z,54.17
2018-05-24T07:29:35.883Z,53.59
2018-05-24T07:30:35.901Z,53.50
2018-05-24T07:31:35.933Z,53.40
2018-05-24T07:32:35.918Z,53.81
2018-05-24T07:33:35.949Z,53.81
2018-05-24T07:34:35.972Z,53.72
2018-05-24T07:35:35.956Z,53.23
2018-05-24T07:36:35.999Z,53.33
2018-05-24T07:37:35.986Z,53.62
2018-05-24T07:38:36.019Z,53.14
2018-05-24T07:39:36.114Z,53.33
2018-05-24T07:40:36.033Z,53.05
2018-05-24T07:41:36.033Z,52.95
2018-05-24T07:42:36.062Z,53.14
2018-05-24T07:43:36.066Z,52.56
2018-05-24T07:44:36.095Z,53.05
2018-05-24T07:45:36.082Z,52.66
2018-05-24T07:46:36.094Z,52.85
2018-05-24T07:47:36.120Z,52.85
2018-05-24T07:48:36.138Z,53.14
2018-05-24T07:49:36.196Z,53.05
2018-05-24T07:50:36.184Z,53.33
2018-05-24T07:51:36.154Z,52.75
2018-05-24T07:52:36.169Z,53.17
2018-05-24T07:53:36.201Z,52.78
2018-05-24T07:54:36.253Z,52.69
2018-05-24T07:55:36.225Z,52.11
2018-05-24T07:56:36.234Z,51.72
2018-05-24T07:57:36.238Z,51.92
2018-05-24T07:58:36.257Z,52.30
2018-05-24T07:59:36.301Z,52.20
2018-05-24T08:00:36.272Z,52.01
2018-05-24T08:01:36.366Z,51.72
2018-05-24T08:02:36.296Z,52.01
2018-05-24T08:03:36.312Z,51.53
2018-05-24T08:04:36.371Z,51.92
2018-05-24T08:05:36.380Z,51.92
2018-05-24T08:06:36.362Z,52.01
2018-05-24T08:07:36.410Z,51.72
2018-05-24T08:08:36.475Z,51.34
2018-05-24T08:09:36.410Z,51.62
2018-05-24T08:10:36.436Z,51.43
2018-05-24T08:11:36.442Z,51.72
2018-05-24T08:12:36.432Z,51.56
2018-05-24T08:13:36.488Z,51.75
2018-05-24T08:14:36.502Z,51.62
2018-05-24T08:15:36.514Z,51.34
2018-05-24T08:16:36.492Z,50.76
2018-05-24T08:17:36.532Z,50.85
2018-05-24T08:18:36.506Z,50.40
2018-05-24T08:19:36.517Z,50.66
2018-05-24T08:20:36.550Z,51.07
2018-05-24T08:21:36.580Z,50.85
2018-05-24T08:22:36.680Z,50.98
2018-05-24T08:23:36.620Z,50.88
2018-05-24T08:24:36.605Z,50.98
2018-05-24T08:25:36.617Z,50.98
2018-05-24T08:26:36.633Z,50.88
2018-05-24T08:27:36.650Z,50.11
2018-05-24T08:28:36.686Z,50.21
2018-05-24T08:29:36.655Z,49.43
2018-05-24T08:30:36.703Z,49.82
2018-05-24T08:31:36.684Z,50.11
2018-05-24T08:32:36.728Z,49.91
2018-05-24T08:33:36.754Z,50.11
2018-05-24T08:34:36.733Z,50.11
2018-05-24T08:35:36.760Z,50.40
2018-05-24T08:36:36.764Z,50.30
2018-05-24T08:37:36.761Z,50.40
2018-05-24T08:38:36.817Z,50.88
2018-05-24T08:39:36.798Z,50.69
2018-05-24T08:40:36.833Z,50.21
2018-05-24T08:41:36.903Z,49.91
2018-05-24T08:42:36.856Z,50.40
2018-05-24T08:43:36.892Z,50.30
2018-05-24T08:44:36.904Z,50.30
2018-05-24T08:45:36.885Z,49.91
2018-05-24T08:46:36.903Z,50.21
2018-05-24T08:47:36.937Z,49.53
2018-05-24T08:48:36.922Z,49.34
2018-05-24T08:49:36.965Z,49.24
2018-05-24T08:50:36.951Z,49.24
2018-05-24T08:51:36.958Z,49.43
2018-05-24T08:52:37.001Z,49.65
2018-05-24T08:53:36.977Z,49.34
2018-05-24T08:54:37.020Z,49.05
2018-05-24T08:55:37.009Z,49.05
2018-05-24T08:56:37.040Z,49.46
2018-05-24T08:57:37.040Z,49.46
2018-05-24T08:58:37.046Z,48.97
2018-05-24T08:59:37.099Z,47.99
2018-05-24T09:00:37.082Z,48.18
2018-05-24T09:01:37.110Z,48.18
2018-05-24T09:02:37.116Z,48.40
2018-05-24T09:03:37.150Z,47.92
2018-05-24T09:04:37.140Z,47.63
2018-05-24T09:05:37.198Z,48.79
2018-05-24T09:06:37.162Z,48.97
2018-05-24T09:07:37.194Z,48.40
2018-05-24T09:08:37.207Z,48.59
2018-05-24T09:09:37.194Z,48.30
2018-05-24T09:10:37.236Z,47.92
2018-05-24T09:11:37.287Z,47.53
2018-05-24T09:12:37.234Z,47.63
2018-05-24T09:13:37.258Z,48.01
2018-05-24T09:14:37.263Z,47.55
2018-05-24T09:15:37.325Z,47.17
2018-05-24T09:16:37.341Z,47.27
2018-05-24T09:17:37.304Z,47.36
2018-05-24T09:18:37.354Z,46.88
2018-05-24T09:19:37.351Z,47.27
2018-05-24T09:20:37.357Z,47.45
2018-05-24T09:21:37.415Z,46.20
2018-05-24T09:22:37.419Z,46.59
2018-05-24T09:23:37.380Z,46.30
2018-05-24T09:24:37.402Z,46.40
2018-05-24T09:25:37.425Z,46.20
2018-05-24T09:26:37.465Z,46.88
2018-05-24T09:27:37.506Z,46.78
2018-05-24T09:28:37.463Z,46.59
2018-05-24T09:29:37.509Z,46.78
2018-05-24T09:30:37.484Z,46.49
2018-05-24T09:31:37.514Z,46.88
2018-05-24T09:32:37.553Z,46.97
2018-05-24T09:33:37.539Z,46.88
2018-05-24T09:34:37.544Z,46.11
2018-05-24T09:35:37.549Z,46.11
2018-05-24T09:36:37.577Z,45.72
2018-05-24T09:37:37.621Z,45.53
2018-05-24T09:38:37.600Z,45.92
2018-05-24T09:39:37.607Z,45.82
2018-05-24T09:40:37.634Z,45.82
2018-05-24T09:41:37.645Z,45.53
2018-05-24T09:42:37.703Z,45.24
2018-05-24T09:43:37.653Z,45.24
2018-05-24T09:44:37.709Z,45.24
2018-05-24T09:45:37.686Z,45.36
2018-05-24T09:46:37.789Z,45.53
2018-05-24T09:47:37.751Z,44.27
2018-05-24T09:48:37.736Z,43.81
2018-05-24T09:49:37.754Z,44.20
2018-05-24T09:50:37.763Z,43.60
2018-05-24T09:51:37.783Z,43.43
2018-05-24T09:52:37.825Z,43.33
2018-05-24T09:53:37.839Z,43.14
2018-05-24T09:54:37.808Z,43.33
2018-05-24T09:55:37.862Z,44.01
2018-05-24T09:56:37.883Z,43.91
2018-05-24T09:57:37.853Z,44.10
2018-05-24T09:58:37.883Z,44.29
2018-05-24T09:59:37.900Z,44.59
2018-05-24T10:00:37.951Z,44.39
2018-05-24T10:01:37.903Z,44.49
2018-05-24T10:02:37.917Z,44.29
2018-05-24T10:03:37.951Z,44.68
2018-05-24T10:04:38.095Z,45.07
2018-05-24T10:05:38.014Z,45.00
2018-05-24T10:06:38.041Z,43.81
2018-05-24T10:07:37.992Z,43.81
2018-05-24T10:08:38.053Z,43.62
2018-05-24T10:09:38.011Z,43.45
2018-05-24T10:10:38.087Z,44.03
2018-05-24T10:11:38.054Z,43.74
2018-05-24T10:12:38.082Z,43.35
2018-05-24T10:13:38.111Z,42.77
2018-05-24T10:14:38.098Z,42.77
2018-05-24T10:15:38.112Z,42.97
2018-05-24T10:16:38.112Z,43.45
2018-05-24T10:17:38.160Z,43.24
2018-05-24T10:18:38.177Z,43.54
2018-05-24T10:19:38.193Z,43.33
2018-05-24T10:20:38.183Z,43.64
2018-05-24T10:21:38.225Z,43.45
2018-05-24T10:22:38.222Z,43.74
2018-05-24T10:23:38.241Z,44.03
2018-05-24T10:24:38.279Z,43.74
2018-05-24T10:25:38.304Z,44.51
2018-05-24T10:26:38.285Z,44.42
2018-05-24T10:27:38.289Z,44.32
2018-05-24T10:28:38.419Z,44.03
2018-05-24T10:29:38.297Z,43.74
2018-05-24T10:30:38.355Z,43.54
2018-05-24T10:31:38.367Z,42.87
2018-05-24T10:32:38.376Z,43.16
2018-05-24T10:33:38.432Z,42.58
2018-05-24T10:34:38.370Z,42.87
2018-05-24T10:35:38.411Z,43.45
2018-05-24T10:36:38.416Z,43.26
2018-05-24T10:37:38.408Z,43.54
2018-05-24T10:38:38.448Z,43.84
2018-05-24T10:39:38.589Z,43.45
2018-05-24T10:40:38.462Z,43.45
2018-05-24T10:41:38.502Z,43.45
2018-05-24T10:42:38.482Z,43.45
2018-05-24T10:43:38.509Z,43.95
2018-05-24T10:44:38.552Z,43.66
2018-05-24T10:45:38.577Z,43.37
2018-05-24T10:46:38.534Z,43.47
2018-05-24T10:47:38.563Z,43.37
2018-05-24T10:48:38.576Z,43.47
2018-05-24T10:49:38.586Z,43.47
2018-05-24T10:50:38.625Z,42.89
2018-05-24T10:51:38.626Z,42.41
2018-05-24T10:52:38.634Z,42.70
2018-05-24T10:53:38.637Z,42.41
2018-05-24T10:54:38.698Z,42.60
2018-05-24T10:55:38.705Z,42.50
2018-05-24T10:56:38.716Z,42.33
2018-05-24T10:57:38.710Z,42.52
2018-05-24T10:58:38.717Z,42.52
2018-05-24T10:59:38.744Z,42.33
2018-05-24T11:00:38.794Z,42.82
2018-05-24T11:01:38.761Z,42.72
2018-05-24T11:02:38.796Z,42.04
2018-05-24T11:03:38.858Z,41.36
2018-05-24T11:04:38.799Z,41.85
2018-05-24T11:05:38.876Z,41.66
2018-05-24T11:06:38.842Z,41.66
2018-05-24T11:07:38.867Z,41.08
2018-05-24T11:08:38.889Z,41.27
2018-05-24T11:09:38.878Z,41.08
2018-05-24T11:10:38.887Z,41.08
2018-05-24T11:11:39.041Z,40.98
2018-05-24T11:12:38.948Z,40.78
2018-05-24T11:13:38.963Z,41.46
2018-05-24T11:14:38.950Z,41.27
2018-05-24T11:15:38.967Z,41.48
2018-05-24T11:16:38.978Z,41.00
2018-05-24T11:17:39.013Z,40.98
2018-05-24T11:18:39.064Z,40.98
2018-05-24T11:19:39.032Z,40.90
2018-05-24T11:20:39.036Z,41.19
2018-05-24T11:21:39.044Z,41.58
2018-05-24T11:22:39.114Z,41.87
2018-05-24T11:23:39.105Z,41.67
2018-05-24T11:24:39.104Z,41.29
2018-05-24T11:25:39.117Z,41.00
2018-05-24T11:26:39.143Z,40.81
2018-05-24T11:27:39.167Z,41.00
2018-05-24T11:28:39.161Z,41.48
2018-05-24T11:29:39.249Z,40.52
2018-05-24T11:30:39.201Z,40.81
2018-05-24T11:31:39.300Z,40.52
2018-05-24T11:32:39.221Z,40.42
2018-05-24T11:33:39.237Z,40.32
2018-05-24T11:34:39.281Z,40.23
2018-05-24T11:35:39.279Z,39.74
2018-05-24T11:36:39.272Z,40.32
2018-05-24T11:37:39.349Z,40.32
2018-05-24T11:38:39.308Z,40.23
2018-05-24T11:39:39.353Z,39.94
2018-05-24T11:40:39.328Z,40.23
2018-05-24T11:41:39.347Z,40.23
2018-05-24T11:42:39.420Z,40.05
2018-05-24T11:43:39.374Z,40.05
2018-05-24T11:44:39.439Z,39.84
2018-05-24T11:45:39.417Z,39.57
2018-05-24T11:46:39.424Z,39.57
2018-05-24T11:47:39.451Z,39.18
2018-05-24T11:48:39.506Z,38.60
2018-05-24T11:49:39.504Z,39.18
2018-05-24T11:50:39.528Z,38.79
2018-05-24T11:51:39.552Z,38.70
2018-05-24T11:52:39.535Z,38.29
2018-05-24T11:53:39.519Z,38.29
2018-05-24T11:54:39.573Z,38.29
2018-05-24T11:55:39.574Z,38.20
2018-05-24T11:56:39.591Z,38.12
2018-05-24T11:57:39.705Z,38.70
2018-05-24T11:58:39.605Z,38.60
2018-05-24T11:59:39.661Z,38.79
2018-05-24T12:00:39.683Z,39.16
2018-05-24T12:01:39.681Z,39.06
2018-05-24T12:02:39.691Z,39.45
2018-05-24T12:03:39.693Z,39.06
2018-05-24T12:04:39.706Z,38.78
2018-05-24T12:05:39.707Z,39.18
2018-05-24T12:06:39.716Z,38.99
2018-05-24T12:07:39.805Z,39.28
2018-05-24T12:08:39.754Z,38.70
2018-05-24T12:09:39.780Z,38.41
2018-05-24T12:10:39.790Z,38.00
2018-05-24T12:11:39.791Z,38.48
2018-05-24T12:12:39.861Z,38.48
2018-05-24T12:13:39.872Z,38.20
2018-05-24T12:14:39.877Z,38.48
2018-05-24T12:15:39.871Z,38.00
2018-05-24T12:16:39.893Z,38.00
2018-05-24T12:17:39.891Z,37.52
2018-05-24T12:18:39.956Z,37.81
2018-05-24T12:19:39.916Z,37.52
2018-05-24T12:20:39.933Z,38.29
2018-05-24T12:21:39.961Z,38.00
2018-05-24T12:22:39.987Z,37.82
2018-05-24T12:23:40.105Z,37.62
2018-05-24T12:24:39.987Z,37.44
2018-05-24T12:25:40.008Z,37.73
2018-05-24T12:26:40.017Z,37.92
2018-05-24T12:27:40.046Z,38.60
2018-05-24T12:28:40.086Z,36.76
2018-05-24T12:29:40.089Z,36.47
2018-05-24T12:30:40.088Z,36.08
2018-05-24T12:31:40.104Z,36.57
2018-05-24T12:32:40.152Z,37.24
2018-05-24T12:33:40.192Z,36.28
2018-05-24T12:34:40.162Z,36.38
2018-05-24T12:35:40.177Z,36.28
2018-05-24T12:36:40.182Z,36.47
2018-05-24T12:37:40.259Z,36.86
2018-05-24T12:38:40.194Z,37.05
2018-05-24T12:39:40.210Z,37.15
2018-05-24T12:40:40.273Z,37.82
2018-05-24T12:41:40.300Z,37.44
2018-05-24T12:42:40.275Z,37.24
2018-05-24T12:43:40.282Z,36.76
2018-05-24T12:44:40.325Z,36.86
2018-05-24T12:45:40.347Z,37.54
2018-05-24T12:46:40.348Z,36.86
2018-05-24T12:47:40.360Z,37.63
2018-05-24T12:48:40.377Z,36.76
2018-05-24T12:49:40.433Z,37.24
2018-05-24T12:50:40.436Z,37.07
2018-05-24T12:51:40.437Z,36.28
2018-05-24T12:52:40.449Z,35.72